sensor_id;sensor_type;location;lat;lon;timestamp;temperature;humidity
9975;DHT22;5028;50.974;4.968;2022-11-15T00:00:15;9.80;99.90
9975;DHT22;5028;50.974;4.968;2022-11-15T00:02:52;9.80;99.90
9975;DHT22;5028;50.974;4.968;2022-11-15T00:05:28;9.80;99.90
9975;DHT22;5028;50.974;4.968;2022-11-15T00:07:58;9.80;99.90
9975;DHT22;5028;50.974;4.968;2022-11-15T00:10:33;9.80;99.90
9975;DHT22;5028;50.974;4.968;2022-11-15T00:13:04;9.90;99.90
9975;DHT22;5028;50.974;4.968;2022-11-15T00:15:41;9.90;99.90
9975;DHT22;5028;50.974;4.968;2022-11-15T00:18:12;10.00;99.90
9975;DHT22;5028;50.974;4.968;2022-11-15T00:20:48;10.00;99.90
9975;DHT22;5028;50.974;4.968;2022-11-15T00:23:18;10.00;99.90
9975;DHT22;5028;50.974;4.968;2022-11-15T00:25:46;10.10;99.90
9975;DHT22;5028;50.974;4.968;2022-11-15T00:28:21;10.10;99.90
9975;DHT22;5028;50.974;4.968;2022-11-15T00:30:49;10.20;99.90
9975;DHT22;5028;50.974;4.968;2022-11-15T00:33:25;10.20;99.90
9975;DHT22;5028;50.974;4.968;2022-11-15T00:36:00;10.20;99.90
9975;DHT22;5028;50.974;4.968;2022-11-15T00:38:43;10.20;99.90
9975;DHT22;5028;50.974;4.968;2022-11-15T00:41:11;10.30;99.90
9975;DHT22;5028;50.974;4.968;2022-11-15T00:43:47;10.30;99.90
9975;DHT22;5028;50.974;4.968;2022-11-15T00:46:16;10.40;99.90
9975;DHT22;5028;50.974;4.968;2022-11-15T00:48:51;10.40;99.90
9975;DHT22;5028;50.974;4.968;2022-11-15T00:51:19;10.40;99.90
9975;DHT22;5028;50.974;4.968;2022-11-15T00:53:49;10.40;99.90
9975;DHT22;5028;50.974;4.968;2022-11-15T00:56:24;10.50;99.90
9975;DHT22;5028;50.974;4.968;2022-11-15T00:58:52;10.50;99.90
9975;DHT22;5028;50.974;4.968;2022-11-15T01:01:28;10.50;99.90
9975;DHT22;5028;50.974;4.968;2022-11-15T01:03:57;10.50;99.90
9975;DHT22;5028;50.974;4.968;2022-11-15T01:06:32;10.50;99.90
9975;DHT22;5028;50.974;4.968;2022-11-15T01:09:02;10.60;99.90
9975;DHT22;5028;50.974;4.968;2022-11-15T01:11:37;10.60;99.90
9975;DHT22;5028;50.974;4.968;2022-11-15T01:14:06;10.60;99.90
9975;DHT22;5028;50.974;4.968;2022-11-15T01:16:34;10.60;99.90
9975;DHT22;5028;50.974;4.968;2022-11-15T01:19:09;10.70;99.90
9975;DHT22;5028;50.974;4.968;2022-11-15T01:21:38;10.70;99.90
9975;DHT22;5028;50.974;4.968;2022-11-15T01:24:15;10.70;99.90
9975;DHT22;5028;50.974;4.968;2022-11-15T01:26:43;10.70;99.90
9975;DHT22;5028;50.974;4.968;2022-11-15T01:29:18;10.70;99.90
9975;DHT22;5028;50.974;4.968;2022-11-15T01:31:46;10.80;99.90
9975;DHT22;5028;50.974;4.968;2022-11-15T01:34:21;10.80;99.90
9975;DHT22;5028;50.974;4.968;2022-11-15T01:36:50;10.80;99.90
9975;DHT22;5028;50.974;4.968;2022-11-15T01:39:40;10.80;99.90
9975;DHT22;5028;50.974;4.968;2022-11-15T01:42:12;10.90;99.90
9975;DHT22;5028;50.974;4.968;2022-11-15T01:44:48;10.90;99.90
9975;DHT22;5028;50.974;4.968;2022-11-15T01:47:25;11.00;99.90
9975;DHT22;5028;50.974;4.968;2022-11-15T01:49:58;10.90;99.90
9975;DHT22;5028;50.974;4.968;2022-11-15T01:52:34;11.00;99.90
9975;DHT22;5028;50.974;4.968;2022-11-15T01:55:07;11.00;99.90
9975;DHT22;5028;50.974;4.968;2022-11-15T01:57:46;11.10;99.90
9975;DHT22;5028;50.974;4.968;2022-11-15T02:00:16;11.10;99.90
9975;DHT22;5028;50.974;4.968;2022-11-15T02:02:51;11.10;99.90
9975;DHT22;5028;50.974;4.968;2022-11-15T02:05:19;11.10;99.90
9975;DHT22;5028;50.974;4.968;2022-11-15T02:07:48;11.10;99.90
9975;DHT22;5028;50.974;4.968;2022-11-15T02:10:25;11.20;99.90
9975;DHT22;5028;50.974;4.968;2022-11-15T02:12:55;11.20;99.90
9975;DHT22;5028;50.974;4.968;2022-11-15T02:15:35;11.20;99.90
9975;DHT22;5028;50.974;4.968;2022-11-15T02:18:12;11.20;99.90
9975;DHT22;5028;50.974;4.968;2022-11-15T02:20:58;11.20;99.90
9975;DHT22;5028;50.974;4.968;2022-11-15T02:23:56;11.30;99.90
9975;DHT22;5028;50.974;4.968;2022-11-15T02:30:02;11.30;99.90
9975;DHT22;5028;50.974;4.968;2022-11-15T02:32:42;11.30;99.90
9975;DHT22;5028;50.974;4.968;2022-11-15T02:35:19;11.40;99.90
9975;DHT22;5028;50.974;4.968;2022-11-15T02:37:57;11.40;99.90
9975;DHT22;5028;50.974;4.968;2022-11-15T02:40:44;11.40;99.90
9975;DHT22;5028;50.974;4.968;2022-11-15T02:43:18;11.40;99.90
9975;DHT22;5028;50.974;4.968;2022-11-15T02:46:17;11.40;99.90
9975;DHT22;5028;50.974;4.968;2022-11-15T02:48:49;11.40;99.90
9975;DHT22;5028;50.974;4.968;2022-11-15T02:51:23;11.50;99.90
9975;DHT22;5028;50.974;4.968;2022-11-15T02:53:52;11.50;99.90
9975;DHT22;5028;50.974;4.968;2022-11-15T02:56:27;11.50;99.90
9975;DHT22;5028;50.974;4.968;2022-11-15T02:59:19;11.50;99.90
9975;DHT22;5028;50.974;4.968;2022-11-15T03:02:07;11.50;99.90
9975;DHT22;5028;50.974;4.968;2022-11-15T03:04:43;11.50;99.90
9975;DHT22;5028;50.974;4.968;2022-11-15T03:07:24;11.50;99.90
9975;DHT22;5028;50.974;4.968;2022-11-15T03:10:06;11.50;99.90
9975;DHT22;5028;50.974;4.968;2022-11-15T03:12:38;11.50;99.90
9975;DHT22;5028;50.974;4.968;2022-11-15T03:15:20;11.50;99.90
9975;DHT22;5028;50.974;4.968;2022-11-15T03:17:52;11.50;99.90
9975;DHT22;5028;50.974;4.968;2022-11-15T03:20:30;11.50;99.90
9975;DHT22;5028;50.974;4.968;2022-11-15T03:23:03;11.50;99.90
9975;DHT22;5028;50.974;4.968;2022-11-15T03:25:41;11.50;99.90
9975;DHT22;5028;50.974;4.968;2022-11-15T03:28:15;11.50;99.90
9975;DHT22;5028;50.974;4.968;2022-11-15T03:30:53;11.50;99.90
9975;DHT22;5028;50.974;4.968;2022-11-15T03:33:31;11.50;99.90
9975;DHT22;5028;50.974;4.968;2022-11-15T03:36:01;11.50;99.90
9975;DHT22;5028;50.974;4.968;2022-11-15T03:38:43;11.50;99.90
9975;DHT22;5028;50.974;4.968;2022-11-15T03:41:17;11.50;99.90
9975;DHT22;5028;50.974;4.968;2022-11-15T03:43:56;11.50;99.90
9975;DHT22;5028;50.974;4.968;2022-11-15T03:46:31;11.50;99.90
9975;DHT22;5028;50.974;4.968;2022-11-15T03:49:10;11.50;99.90
9975;DHT22;5028;50.974;4.968;2022-11-15T03:51:41;11.50;99.90
9975;DHT22;5028;50.974;4.968;2022-11-15T03:54:16;11.50;99.90
9975;DHT22;5028;50.974;4.968;2022-11-15T03:56:51;11.50;99.90
9975;DHT22;5028;50.974;4.968;2022-11-15T03:59:19;11.50;99.90
9975;DHT22;5028;50.974;4.968;2022-11-15T04:01:54;11.50;99.90
9975;DHT22;5028;50.974;4.968;2022-11-15T04:04:22;11.50;99.90
9975;DHT22;5028;50.974;4.968;2022-11-15T04:06:59;11.50;99.90
9975;DHT22;5028;50.974;4.968;2022-11-15T04:09:27;11.50;99.90
9975;DHT22;5028;50.974;4.968;2022-11-15T04:12:03;11.50;99.90
9975;DHT22;5028;50.974;4.968;2022-11-15T04:14:31;11.50;99.90
9975;DHT22;5028;50.974;4.968;2022-11-15T04:17:06;11.50;99.90
9975;DHT22;5028;50.974;4.968;2022-11-15T04:19:41;11.50;99.90
9975;DHT22;5028;50.974;4.968;2022-11-15T04:22:28;11.50;99.90
9975;DHT22;5028;50.974;4.968;2022-11-15T04:25:25;11.50;99.90
9975;DHT22;5028;50.974;4.968;2022-11-15T04:27:58;11.50;99.90
9975;DHT22;5028;50.974;4.968;2022-11-15T04:30:32;11.40;99.90
9975;DHT22;5028;50.974;4.968;2022-11-15T04:33:01;11.40;99.90
9975;DHT22;5028;50.974;4.968;2022-11-15T04:35:36;11.40;99.90
9975;DHT22;5028;50.974;4.968;2022-11-15T04:38:08;11.40;99.90
9975;DHT22;5028;50.974;4.968;2022-11-15T04:40:56;11.40;99.90
9975;DHT22;5028;50.974;4.968;2022-11-15T04:43:25;11.30;99.90
9975;DHT22;5028;50.974;4.968;2022-11-15T04:46:00;11.30;99.90
9975;DHT22;5028;50.974;4.968;2022-11-15T04:48:28;11.30;99.90
9975;DHT22;5028;50.974;4.968;2022-11-15T04:50:56;11.30;99.90
9975;DHT22;5028;50.974;4.968;2022-11-15T04:53:33;11.30;99.90
9975;DHT22;5028;50.974;4.968;2022-11-15T04:56:01;11.30;99.90
9975;DHT22;5028;50.974;4.968;2022-11-15T04:58:36;11.30;99.90
9975;DHT22;5028;50.974;4.968;2022-11-15T05:01:07;11.30;99.90
9975;DHT22;5028;50.974;4.968;2022-11-15T05:03:43;11.20;99.90
9975;DHT22;5028;50.974;4.968;2022-11-15T05:06:34;11.20;99.90
9975;DHT22;5028;50.974;4.968;2022-11-15T05:09:11;11.20;99.90
9975;DHT22;5028;50.974;4.968;2022-11-15T05:11:41;11.20;99.90
9975;DHT22;5028;50.974;4.968;2022-11-15T05:14:09;11.20;99.90
9975;DHT22;5028;50.974;4.968;2022-11-15T05:16:44;11.20;99.90
9975;DHT22;5028;50.974;4.968;2022-11-15T05:19:12;11.10;99.90
9975;DHT22;5028;50.974;4.968;2022-11-15T05:21:47;11.10;99.90
9975;DHT22;5028;50.974;4.968;2022-11-15T05:24:18;11.10;99.90
9975;DHT22;5028;50.974;4.968;2022-11-15T05:26:52;11.10;99.90
9975;DHT22;5028;50.974;4.968;2022-11-15T05:29:21;11.10;99.90
9975;DHT22;5028;50.974;4.968;2022-11-15T05:31:56;11.00;99.90
9975;DHT22;5028;50.974;4.968;2022-11-15T05:34:25;11.00;99.90
9975;DHT22;5028;50.974;4.968;2022-11-15T05:36:53;11.00;99.90
9975;DHT22;5028;50.974;4.968;2022-11-15T05:39:30;11.00;99.90
9975;DHT22;5028;50.974;4.968;2022-11-15T05:42:02;11.00;99.90
9975;DHT22;5028;50.974;4.968;2022-11-15T05:44:44;11.00;99.90
9975;DHT22;5028;50.974;4.968;2022-11-15T05:47:15;11.00;99.90
9975;DHT22;5028;50.974;4.968;2022-11-15T05:49:52;10.90;99.90
9975;DHT22;5028;50.974;4.968;2022-11-15T05:52:24;10.90;99.90
9975;DHT22;5028;50.974;4.968;2022-11-15T05:55:02;10.90;99.90
9975;DHT22;5028;50.974;4.968;2022-11-15T05:57:31;10.90;99.90
9975;DHT22;5028;50.974;4.968;2022-11-15T06:00:07;10.90;99.90
9975;DHT22;5028;50.974;4.968;2022-11-15T06:02:36;10.90;99.90
9975;DHT22;5028;50.974;4.968;2022-11-15T06:05:05;10.90;99.90
9975;DHT22;5028;50.974;4.968;2022-11-15T06:07:40;10.90;99.90
9975;DHT22;5028;50.974;4.968;2022-11-15T06:10:11;10.90;99.90
9975;DHT22;5028;50.974;4.968;2022-11-15T06:12:45;10.80;99.90
9975;DHT22;5028;50.974;4.968;2022-11-15T06:15:14;10.80;99.90
9975;DHT22;5028;50.974;4.968;2022-11-15T06:17:49;10.80;99.90
9975;DHT22;5028;50.974;4.968;2022-11-15T06:20:18;10.80;99.90
9975;DHT22;5028;50.974;4.968;2022-11-15T06:22:57;10.80;99.90
9975;DHT22;5028;50.974;4.968;2022-11-15T06:25:28;10.70;99.90
9975;DHT22;5028;50.974;4.968;2022-11-15T06:28:03;10.70;99.90
9975;DHT22;5028;50.974;4.968;2022-11-15T06:30:38;10.70;99.90
9975;DHT22;5028;50.974;4.968;2022-11-15T06:33:06;10.60;99.90
9975;DHT22;5028;50.974;4.968;2022-11-15T06:35:42;10.60;99.90
9975;DHT22;5028;50.974;4.968;2022-11-15T06:38:11;10.50;99.90
9975;DHT22;5028;50.974;4.968;2022-11-15T06:40:55;10.50;99.90
9975;DHT22;5028;50.974;4.968;2022-11-15T06:43:23;10.50;99.90
9975;DHT22;5028;50.974;4.968;2022-11-15T06:45:59;10.50;99.90
9975;DHT22;5028;50.974;4.968;2022-11-15T06:48:28;10.40;99.90
9975;DHT22;5028;50.974;4.968;2022-11-15T06:51:04;10.40;99.90
9975;DHT22;5028;50.974;4.968;2022-11-15T06:53:34;10.30;99.90
9975;DHT22;5028;50.974;4.968;2022-11-15T06:56:10;10.30;99.90
9975;DHT22;5028;50.974;4.968;2022-11-15T06:58:45;10.20;99.90
9975;DHT22;5028;50.974;4.968;2022-11-15T07:01:13;10.20;99.90
9975;DHT22;5028;50.974;4.968;2022-11-15T07:03:48;10.20;99.90
9975;DHT22;5028;50.974;4.968;2022-11-15T07:06:17;10.10;99.90
9975;DHT22;5028;50.974;4.968;2022-11-15T07:08:52;10.10;99.90
9975;DHT22;5028;50.974;4.968;2022-11-15T07:11:22;10.00;99.90
9975;DHT22;5028;50.974;4.968;2022-11-15T07:13:57;10.00;99.90
9975;DHT22;5028;50.974;4.968;2022-11-15T07:16:26;10.00;99.90
9975;DHT22;5028;50.974;4.968;2022-11-15T07:19:01;9.90;99.90
9975;DHT22;5028;50.974;4.968;2022-11-15T07:21:36;9.90;99.90
9975;DHT22;5028;50.974;4.968;2022-11-15T07:24:05;9.90;99.90
9975;DHT22;5028;50.974;4.968;2022-11-15T07:26:42;9.90;99.90
9975;DHT22;5028;50.974;4.968;2022-11-15T07:29:11;9.80;99.90
9975;DHT22;5028;50.974;4.968;2022-11-15T07:31:45;9.80;99.90
9975;DHT22;5028;50.974;4.968;2022-11-15T07:34:14;9.80;99.90
9975;DHT22;5028;50.974;4.968;2022-11-15T07:36:48;9.70;99.90
9975;DHT22;5028;50.974;4.968;2022-11-15T07:39:23;9.70;99.90
9975;DHT22;5028;50.974;4.968;2022-11-15T07:42:00;9.70;99.90
9975;DHT22;5028;50.974;4.968;2022-11-15T07:44:46;9.70;99.90
9975;DHT22;5028;50.974;4.968;2022-11-15T07:47:21;9.60;99.90
9975;DHT22;5028;50.974;4.968;2022-11-15T07:49:56;9.60;99.90
9975;DHT22;5028;50.974;4.968;2022-11-15T07:52:25;9.60;99.90
9975;DHT22;5028;50.974;4.968;2022-11-15T07:54:59;9.60;99.90
9975;DHT22;5028;50.974;4.968;2022-11-15T07:57:29;9.60;99.90
9975;DHT22;5028;50.974;4.968;2022-11-15T08:00:06;9.60;99.90
9975;DHT22;5028;50.974;4.968;2022-11-15T08:02:34;9.60;99.90
9975;DHT22;5028;50.974;4.968;2022-11-15T08:05:09;9.60;99.90
9975;DHT22;5028;50.974;4.968;2022-11-15T08:07:38;9.60;99.90
9975;DHT22;5028;50.974;4.968;2022-11-15T08:10:08;9.60;99.90
9975;DHT22;5028;50.974;4.968;2022-11-15T08:12:46;9.60;99.90
9975;DHT22;5028;50.974;4.968;2022-11-15T08:15:15;9.60;99.90
9975;DHT22;5028;50.974;4.968;2022-11-15T08:17:53;9.60;99.90
9975;DHT22;5028;50.974;4.968;2022-11-15T08:20:22;9.70;99.90
9975;DHT22;5028;50.974;4.968;2022-11-15T08:22:58;9.60;99.90
9975;DHT22;5028;50.974;4.968;2022-11-15T08:25:28;9.60;99.90
9975;DHT22;5028;50.974;4.968;2022-11-15T08:28:07;9.70;99.90
9975;DHT22;5028;50.974;4.968;2022-11-15T08:30:37;9.70;99.90
9975;DHT22;5028;50.974;4.968;2022-11-15T08:33:14;9.80;99.90
9975;DHT22;5028;50.974;4.968;2022-11-15T08:35:43;9.80;99.90
9975;DHT22;5028;50.974;4.968;2022-11-15T08:38:12;9.80;99.90
9975;DHT22;5028;50.974;4.968;2022-11-15T08:41:02;9.80;99.90
9975;DHT22;5028;50.974;4.968;2022-11-15T08:43:36;9.90;99.90
9975;DHT22;5028;50.974;4.968;2022-11-15T08:46:12;9.90;99.90
9975;DHT22;5028;50.974;4.968;2022-11-15T08:48:41;10.00;99.90
9975;DHT22;5028;50.974;4.968;2022-11-15T08:51:16;10.00;99.90
9975;DHT22;5028;50.974;4.968;2022-11-15T08:53:45;10.00;99.90
9975;DHT22;5028;50.974;4.968;2022-11-15T08:56:20;10.00;99.90
9975;DHT22;5028;50.974;4.968;2022-11-15T08:58:50;10.10;99.90
9975;DHT22;5028;50.974;4.968;2022-11-15T09:01:19;10.10;99.90
9975;DHT22;5028;50.974;4.968;2022-11-15T09:03:55;10.20;99.90
9975;DHT22;5028;50.974;4.968;2022-11-15T09:06:23;10.20;99.90
9975;DHT22;5028;50.974;4.968;2022-11-15T09:09:00;10.20;99.90
9975;DHT22;5028;50.974;4.968;2022-11-15T09:11:29;10.30;99.90
9975;DHT22;5028;50.974;4.968;2022-11-15T09:14:05;10.30;99.90
9975;DHT22;5028;50.974;4.968;2022-11-15T09:16:33;10.30;99.90
9975;DHT22;5028;50.974;4.968;2022-11-15T09:19:08;10.30;99.90
9975;DHT22;5028;50.974;4.968;2022-11-15T09:21:37;10.30;99.90
9975;DHT22;5028;50.974;4.968;2022-11-15T09:24:06;10.30;99.90
9975;DHT22;5028;50.974;4.968;2022-11-15T09:26:41;10.40;99.90
9975;DHT22;5028;50.974;4.968;2022-11-15T09:29:11;10.40;99.90
9975;DHT22;5028;50.974;4.968;2022-11-15T09:31:46;10.50;99.90
9975;DHT22;5028;50.974;4.968;2022-11-15T09:34:15;10.50;99.90
9975;DHT22;5028;50.974;4.968;2022-11-15T09:36:50;10.60;99.90
9975;DHT22;5028;50.974;4.968;2022-11-15T09:39:19;10.70;99.90
9975;DHT22;5028;50.974;4.968;2022-11-15T09:42:16;10.80;99.90
9975;DHT22;5028;50.974;4.968;2022-11-15T09:45:06;10.90;99.90
9975;DHT22;5028;50.974;4.968;2022-11-15T09:48:05;10.90;99.90
9975;DHT22;5028;50.974;4.968;2022-11-15T09:50:41;11.00;99.90
9975;DHT22;5028;50.974;4.968;2022-11-15T09:53:26;11.00;99.90
9975;DHT22;5028;50.974;4.968;2022-11-15T09:56:19;11.00;99.90
9975;DHT22;5028;50.974;4.968;2022-11-15T09:59:05;10.90;99.90
9975;DHT22;5028;50.974;4.968;2022-11-15T10:01:48;11.00;99.90
9975;DHT22;5028;50.974;4.968;2022-11-15T10:04:18;11.10;99.90
9975;DHT22;5028;50.974;4.968;2022-11-15T10:07:01;11.10;99.90
9975;DHT22;5028;50.974;4.968;2022-11-15T10:09:37;11.20;99.90
9975;DHT22;5028;50.974;4.968;2022-11-15T10:12:14;11.20;99.90
9975;DHT22;5028;50.974;4.968;2022-11-15T10:14:43;11.10;99.90
9975;DHT22;5028;50.974;4.968;2022-11-15T10:20:24;11.20;99.90
9975;DHT22;5028;50.974;4.968;2022-11-15T10:23:13;11.40;99.90
9975;DHT22;5028;50.974;4.968;2022-11-15T10:25:42;11.50;99.90
9975;DHT22;5028;50.974;4.968;2022-11-15T10:28:21;11.70;99.90
9975;DHT22;5028;50.974;4.968;2022-11-15T10:30:52;11.80;99.90
9975;DHT22;5028;50.974;4.968;2022-11-15T10:33:31;11.90;99.90
9975;DHT22;5028;50.974;4.968;2022-11-15T10:36:22;11.80;99.90
9975;DHT22;5028;50.974;4.968;2022-11-15T10:38:59;11.80;99.90
9975;DHT22;5028;50.974;4.968;2022-11-15T10:41:35;11.80;99.90
9975;DHT22;5028;50.974;4.968;2022-11-15T10:44:25;11.80;99.90
9975;DHT22;5028;50.974;4.968;2022-11-15T10:47:22;11.80;99.90
9975;DHT22;5028;50.974;4.968;2022-11-15T10:50:06;11.70;99.90
9975;DHT22;5028;50.974;4.968;2022-11-15T10:52:45;11.80;99.90
9975;DHT22;5028;50.974;4.968;2022-11-15T10:55:24;11.90;99.90
9975;DHT22;5028;50.974;4.968;2022-11-15T10:57:55;12.00;99.90
9975;DHT22;5028;50.974;4.968;2022-11-15T11:00:34;12.20;99.90
9975;DHT22;5028;50.974;4.968;2022-11-15T11:03:05;12.30;99.90
9975;DHT22;5028;50.974;4.968;2022-11-15T11:05:41;12.30;99.90
9975;DHT22;5028;50.974;4.968;2022-11-15T11:08:22;12.40;99.90
9975;DHT22;5028;50.974;4.968;2022-11-15T11:11:00;12.50;99.90
9975;DHT22;5028;50.974;4.968;2022-11-15T11:13:31;12.50;99.90
9975;DHT22;5028;50.974;4.968;2022-11-15T11:16:20;12.60;99.90
9975;DHT22;5028;50.974;4.968;2022-11-15T11:19:31;12.70;99.90
9975;DHT22;5028;50.974;4.968;2022-11-15T11:22:16;12.70;99.90
9975;DHT22;5028;50.974;4.968;2022-11-15T11:25:07;12.70;99.90
9975;DHT22;5028;50.974;4.968;2022-11-15T11:27:56;12.70;99.90
9975;DHT22;5028;50.974;4.968;2022-11-15T11:30:34;12.70;99.90
9975;DHT22;5028;50.974;4.968;2022-11-15T11:33:17;12.70;99.90
9975;DHT22;5028;50.974;4.968;2022-11-15T11:35:59;12.70;99.90
9975;DHT22;5028;50.974;4.968;2022-11-15T11:38:55;12.60;99.90
9975;DHT22;5028;50.974;4.968;2022-11-15T11:41:45;12.60;99.90
9975;DHT22;5028;50.974;4.968;2022-11-15T11:44:33;12.70;99.90
9975;DHT22;5028;50.974;4.968;2022-11-15T11:47:09;12.70;99.90
9975;DHT22;5028;50.974;4.968;2022-11-15T11:49:49;12.70;99.90
9975;DHT22;5028;50.974;4.968;2022-11-15T11:52:23;12.70;99.90
9975;DHT22;5028;50.974;4.968;2022-11-15T11:55:05;12.70;99.90
9975;DHT22;5028;50.974;4.968;2022-11-15T11:57:45;12.60;99.90
9975;DHT22;5028;50.974;4.968;2022-11-15T12:00:22;12.70;99.90
9975;DHT22;5028;50.974;4.968;2022-11-15T12:03:09;12.80;99.90
9975;DHT22;5028;50.974;4.968;2022-11-15T12:05:50;12.80;99.90
9975;DHT22;5028;50.974;4.968;2022-11-15T12:08:31;12.80;99.90
9975;DHT22;5028;50.974;4.968;2022-11-15T12:11:12;12.80;99.90
9975;DHT22;5028;50.974;4.968;2022-11-15T12:13:45;12.80;99.90
9975;DHT22;5028;50.974;4.968;2022-11-15T12:16:26;12.90;99.90
9975;DHT22;5028;50.974;4.968;2022-11-15T12:19:03;12.90;99.90
9975;DHT22;5028;50.974;4.968;2022-11-15T12:21:43;12.90;99.90
9975;DHT22;5028;50.974;4.968;2022-11-15T12:24:26;12.90;99.90
9975;DHT22;5028;50.974;4.968;2022-11-15T12:27:06;13.00;99.90
9975;DHT22;5028;50.974;4.968;2022-11-15T12:29:39;13.00;99.90
9975;DHT22;5028;50.974;4.968;2022-11-15T12:32:24;13.10;99.90
9975;DHT22;5028;50.974;4.968;2022-11-15T12:34:53;13.00;99.90
9975;DHT22;5028;50.974;4.968;2022-11-15T12:37:54;13.10;99.90
9975;DHT22;5028;50.974;4.968;2022-11-15T12:40:29;13.10;99.90
9975;DHT22;5028;50.974;4.968;2022-11-15T12:43:36;13.20;99.90
9975;DHT22;5028;50.974;4.968;2022-11-15T12:46:13;13.20;99.90
9975;DHT22;5028;50.974;4.968;2022-11-15T12:48:52;13.20;99.90
9975;DHT22;5028;50.974;4.968;2022-11-15T12:51:22;13.20;99.90
9975;DHT22;5028;50.974;4.968;2022-11-15T12:54:56;13.30;99.90
9975;DHT22;5028;50.974;4.968;2022-11-15T13:00:43;13.20;99.90
9975;DHT22;5028;50.974;4.968;2022-11-15T13:03:24;13.20;99.90
9975;DHT22;5028;50.974;4.968;2022-11-15T13:06:05;13.20;99.90
9975;DHT22;5028;50.974;4.968;2022-11-15T13:08:43;13.20;99.90
9975;DHT22;5028;50.974;4.968;2022-11-15T13:11:49;13.20;99.90
9975;DHT22;5028;50.974;4.968;2022-11-15T13:14:41;13.20;99.90
9975;DHT22;5028;50.974;4.968;2022-11-15T13:17:31;13.20;99.90
9975;DHT22;5028;50.974;4.968;2022-11-15T13:20:26;13.20;99.90
9975;DHT22;5028;50.974;4.968;2022-11-15T13:23:08;13.20;99.90
9975;DHT22;5028;50.974;4.968;2022-11-15T13:25:57;13.10;99.90
9975;DHT22;5028;50.974;4.968;2022-11-15T13:28:37;13.10;99.90
9975;DHT22;5028;50.974;4.968;2022-11-15T13:31:25;13.20;99.90
9975;DHT22;5028;50.974;4.968;2022-11-15T13:34:03;13.20;99.90
9975;DHT22;5028;50.974;4.968;2022-11-15T13:36:53;13.30;99.90
9975;DHT22;5028;50.974;4.968;2022-11-15T13:39:30;13.30;99.90
9975;DHT22;5028;50.974;4.968;2022-11-15T13:41:59;13.30;99.90
9975;DHT22;5028;50.974;4.968;2022-11-15T13:44:34;13.30;99.90
9975;DHT22;5028;50.974;4.968;2022-11-15T13:47:05;13.40;99.90
9975;DHT22;5028;50.974;4.968;2022-11-15T13:49:40;13.40;99.90
9975;DHT22;5028;50.974;4.968;2022-11-15T13:52:13;13.40;99.90
9975;DHT22;5028;50.974;4.968;2022-11-15T13:54:54;13.40;99.90
9975;DHT22;5028;50.974;4.968;2022-11-15T13:57:27;13.40;99.90
9975;DHT22;5028;50.974;4.968;2022-11-15T14:00:06;13.40;99.90
9975;DHT22;5028;50.974;4.968;2022-11-15T14:02:52;13.40;99.90
9975;DHT22;5028;50.974;4.968;2022-11-15T14:05:28;13.40;99.90
9975;DHT22;5028;50.974;4.968;2022-11-15T14:08:00;13.30;99.90
9975;DHT22;5028;50.974;4.968;2022-11-15T14:10:36;13.30;99.90
9975;DHT22;5028;50.974;4.968;2022-11-15T14:13:27;13.30;99.90
9975;DHT22;5028;50.974;4.968;2022-11-15T14:16:18;13.30;99.90
9975;DHT22;5028;50.974;4.968;2022-11-15T14:18:48;13.30;99.90
9975;DHT22;5028;50.974;4.968;2022-11-15T14:21:23;13.30;99.90
9975;DHT22;5028;50.974;4.968;2022-11-15T14:24:16;13.30;99.90
9975;DHT22;5028;50.974;4.968;2022-11-15T14:26:53;13.30;99.90
9975;DHT22;5028;50.974;4.968;2022-11-15T14:29:23;13.30;99.90
9975;DHT22;5028;50.974;4.968;2022-11-15T14:32:12;13.30;99.90
9975;DHT22;5028;50.974;4.968;2022-11-15T14:34:41;13.30;99.90
9975;DHT22;5028;50.974;4.968;2022-11-15T14:37:22;13.30;99.90
9975;DHT22;5028;50.974;4.968;2022-11-15T14:39:53;13.30;99.90
9975;DHT22;5028;50.974;4.968;2022-11-15T14:42:28;13.30;99.90
9975;DHT22;5028;50.974;4.968;2022-11-15T14:44:56;13.30;99.90
9975;DHT22;5028;50.974;4.968;2022-11-15T14:47:31;13.30;99.90
9975;DHT22;5028;50.974;4.968;2022-11-15T14:50:00;13.30;99.90
9975;DHT22;5028;50.974;4.968;2022-11-15T14:52:35;13.30;99.90
9975;DHT22;5028;50.974;4.968;2022-11-15T14:55:14;13.30;99.90
9975;DHT22;5028;50.974;4.968;2022-11-15T14:57:51;13.20;99.90
9975;DHT22;5028;50.974;4.968;2022-11-15T15:00:20;13.20;99.90
9975;DHT22;5028;50.974;4.968;2022-11-15T15:03:02;13.10;99.90
9975;DHT22;5028;50.974;4.968;2022-11-15T15:05:32;13.10;99.90
9975;DHT22;5028;50.974;4.968;2022-11-15T15:08:08;13.10;99.90
9975;DHT22;5028;50.974;4.968;2022-11-15T15:10:41;13.00;99.90
9975;DHT22;5028;50.974;4.968;2022-11-15T15:13:19;12.90;99.90
9975;DHT22;5028;50.974;4.968;2022-11-15T15:15:48;12.80;99.90
9975;DHT22;5028;50.974;4.968;2022-11-15T15:18:30;12.80;99.90
9975;DHT22;5028;50.974;4.968;2022-11-15T15:21:19;12.70;99.90
9975;DHT22;5028;50.974;4.968;2022-11-15T15:24:03;12.60;99.90
9975;DHT22;5028;50.974;4.968;2022-11-15T15:26:33;12.60;99.90
9975;DHT22;5028;50.974;4.968;2022-11-15T15:29:09;12.50;99.90
9975;DHT22;5028;50.974;4.968;2022-11-15T15:31:38;12.50;99.90
9975;DHT22;5028;50.974;4.968;2022-11-15T15:34:13;12.40;99.90
9975;DHT22;5028;50.974;4.968;2022-11-15T15:36:43;12.40;99.90
9975;DHT22;5028;50.974;4.968;2022-11-15T15:39:17;12.40;99.90
9975;DHT22;5028;50.974;4.968;2022-11-15T15:41:47;12.30;99.90
9975;DHT22;5028;50.974;4.968;2022-11-15T15:44:23;12.30;99.90
9975;DHT22;5028;50.974;4.968;2022-11-15T15:46:52;12.20;99.90
9975;DHT22;5028;50.974;4.968;2022-11-15T15:49:27;12.20;99.90
9975;DHT22;5028;50.974;4.968;2022-11-15T15:51:56;12.00;99.90
9975;DHT22;5028;50.974;4.968;2022-11-15T15:54:31;12.10;99.90
9975;DHT22;5028;50.974;4.968;2022-11-15T15:57:01;12.10;99.90
9975;DHT22;5028;50.974;4.968;2022-11-15T15:59:36;12.10;99.90
9975;DHT22;5028;50.974;4.968;2022-11-15T16:02:05;12.00;99.90
9975;DHT22;5028;50.974;4.968;2022-11-15T16:04:40;12.00;99.90
9975;DHT22;5028;50.974;4.968;2022-11-15T16:07:16;12.00;99.90
9975;DHT22;5028;50.974;4.968;2022-11-15T16:09:51;12.00;99.90
9975;DHT22;5028;50.974;4.968;2022-11-15T16:12:32;12.00;99.90
9975;DHT22;5028;50.974;4.968;2022-11-15T16:15:08;11.90;99.90
9975;DHT22;5028;50.974;4.968;2022-11-15T16:17:39;11.90;99.90
9975;DHT22;5028;50.974;4.968;2022-11-15T16:20:31;11.90;99.90
9975;DHT22;5028;50.974;4.968;2022-11-15T16:23:01;11.80;99.90
9975;DHT22;5028;50.974;4.968;2022-11-15T16:25:40;11.80;99.90
9975;DHT22;5028;50.974;4.968;2022-11-15T16:28:18;11.80;99.90
9975;DHT22;5028;50.974;4.968;2022-11-15T16:31:00;11.80;99.90
9975;DHT22;5028;50.974;4.968;2022-11-15T16:33:29;11.80;99.90
9975;DHT22;5028;50.974;4.968;2022-11-15T16:36:04;11.80;99.90
9975;DHT22;5028;50.974;4.968;2022-11-15T16:38:33;11.70;99.90
9975;DHT22;5028;50.974;4.968;2022-11-15T16:41:09;11.70;99.90
9975;DHT22;5028;50.974;4.968;2022-11-15T16:43:39;11.70;99.90
9975;DHT22;5028;50.974;4.968;2022-11-15T16:46:17;11.70;99.90
9975;DHT22;5028;50.974;4.968;2022-11-15T16:48:46;11.70;99.90
9975;DHT22;5028;50.974;4.968;2022-11-15T16:51:22;11.70;99.90
9975;DHT22;5028;50.974;4.968;2022-11-15T16:53:51;11.70;99.90
9975;DHT22;5028;50.974;4.968;2022-11-15T16:56:27;11.70;99.90
9975;DHT22;5028;50.974;4.968;2022-11-15T16:58:58;11.60;99.90
9975;DHT22;5028;50.974;4.968;2022-11-15T17:01:36;11.60;99.90
9975;DHT22;5028;50.974;4.968;2022-11-15T17:04:12;11.60;99.90
9975;DHT22;5028;50.974;4.968;2022-11-15T17:06:48;11.60;99.90
9975;DHT22;5028;50.974;4.968;2022-11-15T17:09:18;11.60;99.90